Time,TemperatureF,DewpointF,PressureIn,WindDirection,WindDirectionDegrees,WindSpeedMPH,WindSpeedGustMPH,Humidity,HourlyPrecipIn,Conditions,Clouds,dailyrainin,SoftwareType,DateUTC
2013-12-07 00:12:00,23.0,8.0,-100.00,East,90,6.0,17.0,53,-99.99,,,-99.99,,2013-12-07 08:12:00,
2013-12-07 01:43:00,22.0,5.0,-100.00,East,90,5.0,16.0,47,-99.99,,,-99.99,,2013-12-07 09:43:00,
2013-12-07 03:12:00,21.0,3.0,-100.00,NE,45,5.0,16.0,45,-99.99,,,-99.99,,2013-12-07 11:12:00,
2013-12-07 03:22:00,21.0,2.0,-100.00,East,90,4.0,16.0,43,-99.99,,,-99.99,,2013-12-07 11:22:00,
2013-12-07 03:32:00,21.0,2.0,-100.00,East,90,4.0,16.0,43,-99.99,,,-99.99,,2013-12-07 11:32:00,
2013-12-07 04:42:00,21.0,0.0,-100.00,East,90,4.0,19.0,39,-99.99,,,-99.99,,2013-12-07 12:42:00,
2013-12-07 05:42:00,20.0,-1.0,-100.00,NE,45,6.0,18.0,38,-99.99,,,-99.99,,2013-12-07 13:42:00,
2013-12-07 06:11:00,20.0,-2.0,-100.00,East,90,8.0,17.0,37,-99.99,,,-99.99,,2013-12-07 14:11:00,
2013-12-07 06:52:00,20.0,-2.0,-100.00,NE,45,3.0,12.0,38,-99.99,,,-99.99,,2013-12-07 14:52:00,
2013-12-07 07:11:00,20.0,-2.0,-100.00,East,90,9.0,16.0,36,-99.99,,,-99.99,,2013-12-07 15:11:00,
2013-12-07 07:21:00,20.0,-2.0,-100.00,East,90,6.0,14.0,37,-99.99,,,-99.99,,2013-12-07 15:21:00,
2013-12-07 07:43:00,20.0,-3.0,-100.00,NE,45,4.0,15.0,36,-99.99,,,-99.99,,2013-12-07 15:43:00,
2013-12-07 08:42:00,20.0,-4.0,-100.00,East,90,6.0,14.0,34,-99.99,,,-99.99,,2013-12-07 16:42:00,
2013-12-07 11:11:00,22.0,2.0,-100.00,East,90,6.0,15.0,42,-99.99,,,-99.99,,2013-12-07 19:11:00,
2013-12-07 11:42:00,22.0,3.0,-100.00,East,90,8.0,18.0,44,-99.99,,,-99.99,,2013-12-07 19:42:00,
2013-12-07 13:11:00,23.0,3.0,-100.00,East,90,6.0,13.0,41,-99.99,,,-99.99,,2013-12-07 21:11:00,
2013-12-07 14:42:00,24.0,3.0,-100.00,East,90,4.0,11.0,40,-99.99,,,-99.99,,2013-12-07 22:42:00,
2013-12-07 15:52:00,23.0,5.0,-100.00,East,90,3.0,8.0,44,-99.99,,,-99.99,,2013-12-07 23:52:00,
2013-12-07 16:02:00,23.0,5.0,-100.00,East,90,3.0,8.0,44,-99.99,,,-99.99,,2013-12-08 00:02:00,
2013-12-07 16:22:00,22.0,6.0,-100.00,East,90,3.0,6.0,51,-99.99,,,-99.99,,2013-12-08 00:22:00,
2013-12-07 16:42:00,21.0,7.0,-100.00,East,90,1.0,4.0,54,-99.99,,,-99.99,,2013-12-08 00:42:00,
2013-12-07 18:12:00,17.0,7.0,-100.00,SE,135,1.0,3.0,64,-99.99,,,-99.99,,2013-12-08 02:12:00,
2013-12-07 18:43:00,16.0,8.0,-100.00,South,180,1.0,3.0,68,-99.99,,,-99.99,,2013-12-08 02:43:00,
2013-12-07 20:02:00,-999.0,-99.9,-100.00,South,180,1.0,3.0,-999,-99.99,,,-99.99,,2013-12-08 04:02:00,
2013-12-07 20:43:00,15.0,7.0,-100.00,South,180,1.0,3.0,69,-99.99,,,-99.99,,2013-12-08 04:43:00,
2013-12-07 21:12:00,14.0,7.0,-100.00,SW,225,1.0,3.0,72,-99.99,,,-99.99,,2013-12-08 05:12:00,
2013-12-07 21:43:00,14.0,7.0,-100.00,SE,135,1.0,3.0,70,-99.99,,,-99.99,,2013-12-08 05:43:00,
2013-12-07 22:12:00,14.0,6.0,-100.00,South,180,1.0,2.0,70,-99.99,,,-99.99,,2013-12-08 06:12:00,
2013-12-07 22:42:00,15.0,7.0,-100.00,South,180,1.0,3.0,70,-99.99,,,-99.99,,2013-12-08 06:42:00,
2013-12-07 23:12:00,14.0,6.0,-100.00,NE,45,1.0,4.0,73,-99.99,,,-99.99,,2013-12-08 07:12:00,
2013-12-07 23:42:00,14.0,7.0,-100.00,NE,45,1.0,3.0,73,-99.99,,,-99.99,,2013-12-08 07:42:00,